Time;durP1;ratioP1;P1;durP2;ratioP2;P2;SDS_P1;SDS_P2;PMS_P1;PMS_P2;Temp;Humidity;BMP_temperature;BMP_pressure;BME280_temperature;BME280_humidity;BME280_pressure;Samples;Min_cycle;Max_cycle;Signal;HPM_P1;HPM_P2
2023/04/14 00:01:33;;;;;;;19.23;7.57;;;;;;;5.81;76.52;100726.47;5045218;28;20033;-63
2023/04/14 00:03:59;;;;;;;17.88;7.15;;;;;;;5.81;76.25;100721.19;5046037;28;20441;-63
2023/04/14 00:06:26;;;;;;;17.95;7.85;;;;;;;5.75;76.45;100723.38;5042694;28;20037;-64
2023/04/14 00:08:51;;;;;;;17.35;8.82;;;;;;;5.75;76.10;100735.69;5044286;28;20112;-63
2023/04/14 00:11:16;;;;;;;17.05;8.85;;;;;;;5.75;76.04;100725.16;5035622;28;20111;-64
2023/04/14 00:13:42;;;;;;;18.42;8.95;;;;;;;5.69;76.52;100718.66;5044499;28;20029;-63
2023/04/14 00:16:07;;;;;;;20.10;9.80;;;;;;;5.61;76.23;100721.09;5045094;28;20059;-63
2023/04/14 00:18:32;;;;;;;17.88;9.25;;;;;;;5.60;76.60;100728.16;5041854;28;20065;-63
2023/04/14 00:20:58;;;;;;;19.52;9.10;;;;;;;5.55;77.07;100721.63;5041635;28;20547;-63
2023/04/14 00:23:23;;;;;;;15.73;8.52;;;;;;;5.54;77.39;100719.97;5043084;28;20076;-63
2023/04/14 00:25:49;;;;;;;18.88;9.07;;;;;;;5.50;78.47;100725.50;5040472;28;20037;-63
2023/04/14 00:28:15;;;;;;;16.17;8.45;;;;;;;5.42;78.41;100722.66;5045322;28;20039;-63
2023/04/14 00:30:40;;;;;;;16.98;7.47;;;;;;;5.41;77.58;100720.16;5043391;28;20469;-63
2023/04/14 00:33:05;;;;;;;14.90;7.05;;;;;;;5.42;78.13;100732.38;5043398;28;20021;-63
2023/04/14 00:35:31;;;;;;;15.45;7.05;;;;;;;5.34;78.04;100730.38;5041197;28;20555;-63
2023/04/14 00:37:57;;;;;;;14.70;6.93;;;;;;;5.29;78.77;100732.56;5044366;28;20492;-63
2023/04/14 00:40:23;;;;;;;13.50;6.22;;;;;;;5.24;78.53;100733.78;5043932;28;20112;-63
2023/04/14 00:42:49;;;;;;;18.33;5.95;;;;;;;5.16;78.44;100728.34;5044922;28;20469;-63
2023/04/14 00:45:15;;;;;;;14.82;6.18;;;;;;;5.13;78.77;100727.78;5045641;28;20499;-63
2023/04/14 00:47:45;;;;;;;13.88;5.80;;;;;;;5.05;80.24;100736.28;5043961;28;20053;-63
2023/04/14 00:50:13;;;;;;;12.95;5.40;;;;;;;5.03;80.24;100728.53;5045306;28;20033;-63
2023/04/14 00:52:41;;;;;;;10.10;4.82;;;;;;;5.02;79.93;100733.94;5045445;28;20099;-63
2023/04/14 00:55:07;;;;;;;12.60;4.90;;;;;;;4.97;80.20;100732.50;5044566;28;20020;-63
2023/04/14 00:57:33;;;;;;;12.82;4.80;;;;;;;4.92;79.88;100734.69;5044756;28;20039;-63
2023/04/14 00:59:59;;;;;;;14.77;5.03;;;;;;;4.86;80.19;100732.56;5044955;28;20380;-63
2023/04/14 01:02:25;;;;;;;13.45;4.60;;;;;;;4.82;80.88;100737.25;5042592;28;20381;-63
2023/04/14 01:04:50;;;;;;;13.35;4.65;;;;;;;4.80;80.51;100739.13;5046552;28;20098;-63
2023/04/14 01:07:17;;;;;;;10.13;4.55;;;;;;;4.75;81.13;100740.50;5044180;28;20036;-63
2023/04/14 01:09:43;;;;;;;10.35;4.93;;;;;;;4.74;81.47;100744.09;5044243;28;20495;-63
2023/04/14 01:12:40;;;;;;;17.05;5.43;;;;;;;4.65;80.81;100741.25;5043181;28;20037;-63
2023/04/14 01:15:24;;;;;;;12.55;5.00;;;;;;;4.70;81.97;100741.69;5018051;28;20115;-63
2023/04/14 01:18:37;;;;;;;12.60;5.32;;;;;;;4.61;81.24;100755.59;5044553;28;20048;-63
2023/04/14 01:21:10;;;;;;;13.83;5.50;;;;;;;4.60;81.83;100743.41;4983305;28;20045;-63
2023/04/14 01:23:40;;;;;;;13.27;5.57;;;;;;;4.64;81.57;100751.88;5032224;28;21154;-63
2023/04/14 01:26:17;;;;;;;12.63;5.28;;;;;;;4.61;81.44;100754.75;5037759;28;20041;-63
2023/04/14 01:28:45;;;;;;;17.48;5.80;;;;;;;4.44;81.68;100755.16;5043374;28;20086;-63
2023/04/14 01:31:31;;;;;;;11.43;5.25;;;;;;;4.44;82.77;100749.91;5041123;28;20036;-63
2023/04/14 01:34:21;;;;;;;12.07;5.60;;;;;;;4.38;82.80;100750.41;5043938;28;20062;-63
2023/04/14 01:36:55;;;;;;;13.57;5.70;;;;;;;4.27;83.04;100743.38;5043011;28;20040;-63
2023/04/14 01:39:26;;;;;;;15.38;5.78;;;;;;;4.18;83.05;100749.34;5041020;28;20069;-63
2023/04/14 01:41:57;;;;;;;14.52;5.75;;;;;;;4.22;83.72;100758.66;5044964;28;20045;-63
2023/04/14 01:44:24;;;;;;;15.57;5.68;;;;;;;4.14;83.67;100740.88;5044703;28;20025;-63
2023/04/14 01:46:54;;;;;;;12.40;5.93;;;;;;;4.03;83.63;100741.75;5039803;28;20096;-63
2023/04/14 01:49:22;;;;;;;15.05;5.50;;;;;;;4.05;84.14;100754.75;5044566;28;20040;-63
2023/04/14 01:51:48;;;;;;;15.23;5.40;;;;;;;4.04;84.30;100758.31;5043991;28;20033;-63
2023/04/14 01:54:16;;;;;;;13.60;5.15;;;;;;;4.02;84.92;100760.22;5044557;28;20056;-63
2023/04/14 01:56:43;;;;;;;13.95;5.50;;;;;;;4.07;85.15;100758.09;5037556;28;20033;-63
2023/04/14 01:59:10;;;;;;;16.70;5.45;;;;;;;4.01;85.00;100767.25;5040009;28;20536;-63
2023/04/14 02:01:36;;;;;;;15.50;5.15;;;;;;;4.11;84.17;100762.16;5039729;28;20033;-63
2023/04/14 02:04:03;;;;;;;11.95;5.15;;;;;;;4.08;84.75;100759.75;5041796;28;20033;-63
2023/04/14 02:06:30;;;;;;;12.10;4.95;;;;;;;4.13;84.97;100762.84;5041645;28;20041;-63
2023/04/14 02:09:00;;;;;;;11.80;4.95;;;;;;;4.14;84.77;100761.88;5043921;28;20432;-63
2023/04/14 02:11:28;;;;;;;14.52;5.00;;;;;;;4.14;84.94;100759.25;5034921;28;20033;-63
2023/04/14 02:13:55;;;;;;;14.48;5.38;;;;;;;4.03;84.77;100767.16;5044141;28;20033;-63
2023/04/14 02:16:22;;;;;;;12.73;4.95;;;;;;;4.06;85.24;100761.66;5042394;28;20068;-63
2023/04/14 02:18:49;;;;;;;14.07;5.05;;;;;;;4.01;85.74;100769.88;5041736;28;20032;-63
2023/04/14 02:21:17;;;;;;;13.75;4.82;;;;;;;4.04;84.67;100768.81;5037958;28;20032;-63
2023/04/14 02:23:42;;;;;;;13.95;5.00;;;;;;;4.02;84.84;100771.56;5044142;28;20033;-63
2023/04/14 02:26:14;;;;;;;14.32;5.07;;;;;;;3.94;85.62;100773.13;5039771;28;20462;-63
2023/04/14 02:28:56;;;;;;;15.60;5.35;;;;;;;3.96;86.25;100776.47;5042281;28;20030;-63
2023/04/14 02:31:24;;;;;;;13.77;4.80;;;;;;;3.89;86.57;100776.94;5038629;28;20068;-63
2023/04/14 02:33:53;;;;;;;16.35;5.13;;;;;;;3.93;86.79;100768.81;5042872;28;20595;-63
2023/04/14 02:36:27;;;;;;;12.52;4.95;;;;;;;3.98;86.91;100771.91;5041760;28;20082;-63
2023/04/14 02:39:09;;;;;;;11.90;5.07;;;;;;;4.01;87.69;100772.50;5041957;28;20503;-63
2023/04/14 02:41:36;;;;;;;12.63;4.82;;;;;;;3.92;86.57;100773.25;5037972;28;20032;-63
2023/04/14 02:44:13;;;;;;;11.65;4.90;;;;;;;3.89;86.30;100784.81;5040816;28;20052;-63
2023/04/14 02:46:41;;;;;;;15.60;5.07;;;;;;;3.85;86.55;100783.38;5045431;28;20075;-63
2023/04/14 02:49:11;;;;;;;14.00;4.93;;;;;;;3.79;86.66;100786.47;5047551;28;20036;-63
2023/04/14 02:51:38;;;;;;;11.77;4.88;;;;;;;3.79;87.13;100786.47;5047450;28;20033;-63
2023/04/14 02:54:04;;;;;;;13.00;5.13;;;;;;;3.78;87.30;100790.03;5044232;28;20024;-63
2023/04/14 02:56:30;;;;;;;11.60;4.82;;;;;;;3.75;87.29;100791.13;5038811;28;20025;-63
2023/04/14 02:58:57;;;;;;;11.65;4.82;;;;;;;3.65;87.28;100784.06;5044435;28;20028;-63
2023/04/14 03:01:24;;;;;;;12.13;5.18;;;;;;;3.65;87.99;100784.06;5045931;28;20049;-63
2023/04/14 03:03:51;;;;;;;14.90;4.90;;;;;;;3.61;87.81;100784.31;5045015;28;20583;-63
2023/04/14 03:06:16;;;;;;;13.60;5.32;;;;;;;3.62;87.81;100788.59;5043057;28;20037;-62
2023/04/14 03:08:43;;;;;;;11.38;4.97;;;;;;;3.58;87.89;100795.03;5047679;28;20374;-63
2023/04/14 03:11:12;;;;;;;16.00;4.88;;;;;;;3.54;88.31;100793.59;5040666;28;20025;-63
2023/04/14 03:13:39;;;;;;;11.90;4.97;;;;;;;3.54;88.36;100793.59;5044351;28;20067;-63
2023/04/14 03:16:05;;;;;;;15.02;5.13;;;;;;;3.57;88.51;100792.53;5046694;28;20024;-63
2023/04/14 03:18:31;;;;;;;13.77;4.88;;;;;;;3.60;87.96;100797.56;5046141;28;20086;-63
2023/04/14 03:20:59;;;;;;;11.75;4.72;;;;;;;3.58;87.63;100797.66;5045401;28;20026;-63
2023/04/14 03:23:25;;;;;;;11.25;4.95;;;;;;;3.57;88.40;100796.00;5046596;28;20068;-63
2023/04/14 03:25:52;;;;;;;12.25;4.78;;;;;;;3.53;88.30;100791.94;5046503;28;20033;-63
2023/04/14 03:28:21;;;;;;;11.90;4.75;;;;;;;3.40;89.04;100786.75;5045726;28;20086;-63
2023/04/14 03:30:50;;;;;;;15.40;5.00;;;;;;;3.47;88.88;100795.00;5046660;28;20487;-63
2023/04/14 03:33:19;;;;;;;12.57;4.82;;;;;;;3.45;89.44;100794.31;5045865;28;20562;-63
2023/04/14 03:35:45;;;;;;;13.13;5.03;;;;;;;3.45;89.69;100794.31;5044030;28;20404;-63
2023/04/14 03:38:14;;;;;;;11.90;4.78;;;;;;;3.46;89.82;100795.97;5044860;28;20108;-63
2023/04/14 03:40:45;;;;;;;10.73;4.85;;;;;;;3.49;89.87;100790.47;5047100;28;20091;-63
2023/04/14 03:43:12;;;;;;;13.02;5.10;;;;;;;3.45;89.40;100799.53;5048290;28;20551;-63
2023/04/14 03:45:38;;;;;;;15.35;5.60;;;;;;;3.48;89.95;100800.16;5043443;28;20033;-63
2023/04/14 03:48:09;;;;;;;13.57;4.85;;;;;;;3.51;90.14;100799.09;5042236;28;20069;-63
2023/04/14 03:50:40;;;;;;;13.65;5.68;;;;;;;3.50;90.50;100795.63;5044010;28;20059;-63
2023/04/14 03:53:08;;;;;;;17.80;5.72;;;;;;;3.53;90.74;100799.78;5047185;28;20028;-63
2023/04/14 03:55:35;;;;;;;12.68;5.28;;;;;;;3.57;90.05;100798.63;5046577;28;20113;-62
2023/04/14 03:58:02;;;;;;;14.68;5.40;;;;;;;3.51;90.41;100801.72;5044669;28;20430;-63
2023/04/14 04:00:29;;;;;;;19.75;5.90;;;;;;;3.49;90.22;100800.97;5039184;28;20047;-63
2023/04/14 04:02:56;;;;;;;14.07;5.80;;;;;;;3.49;90.50;100798.34;5034156;28;20037;-63
2023/04/14 04:05:22;;;;;;;15.57;5.97;;;;;;;3.44;91.01;100808.34;5036734;28;20717;-63
2023/04/14 04:07:51;;;;;;;15.50;5.43;;;;;;;3.41;90.96;100813.81;5037195;28;20040;-63
2023/04/14 04:10:19;;;;;;;17.25;5.32;;;;;;;3.41;91.44;100808.59;5035477;28;20053;-63
2023/04/14 04:12:46;;;;;;;14.43;5.65;;;;;;;3.42;91.23;100810.25;5032635;28;20028;-63
2023/04/14 04:15:12;;;;;;;15.15;5.70;;;;;;;3.39;91.27;100805.25;5039046;28;20116;-63
2023/04/14 04:17:40;;;;;;;17.88;5.70;;;;;;;3.43;91.91;100809.28;5038117;28;20128;-63
2023/04/14 04:20:11;;;;;;;18.25;5.75;;;;;;;3.45;91.96;100805.59;5037025;28;20028;-63
2023/04/14 04:22:40;;;;;;;15.85;5.55;;;;;;;3.48;91.42;100804.53;5040212;28;20064;-63
2023/04/14 04:25:07;;;;;;;14.40;5.22;;;;;;;3.42;91.75;100807.63;5039284;28;20102;-62
2023/04/14 04:27:33;;;;;;;13.48;5.90;;;;;;;3.42;92.53;100808.47;5040527;28;20033;-63
2023/04/14 04:29:59;;;;;;;15.80;5.57;;;;;;;3.43;91.98;100817.16;5043513;28;20366;-64
2023/04/14 04:32:24;;;;;;;16.30;6.00;;;;;;;3.44;92.05;100814.44;5037537;28;20029;-63
2023/04/14 04:34:51;;;;;;;13.93;5.68;;;;;;;3.46;91.79;100816.94;5037321;28;20069;-65
2023/04/14 04:37:18;;;;;;;13.75;5.32;;;;;;;3.44;91.85;100818.81;5036519;28;20729;-64
2023/04/14 04:39:43;;;;;;;13.43;5.30;;;;;;;3.42;91.60;100820.75;5037853;28;20120;-64
2023/04/14 04:42:09;;;;;;;15.55;5.95;;;;;;;3.33;91.09;100817.88;5037612;28;20116;-63
2023/04/14 04:44:35;;;;;;;16.17;6.07;;;;;;;3.36;92.24;100822.88;5038423;28;20492;-64
2023/04/14 04:47:00;;;;;;;16.75;5.80;;;;;;;3.36;92.11;100822.88;5039204;28;20041;-64
2023/04/14 04:49:26;;;;;;;16.25;5.65;;;;;;;3.31;92.49;100819.75;5039901;28;20485;-63
2023/04/14 04:51:52;;;;;;;17.63;5.80;;;;;;;3.28;92.70;100814.75;5037050;28;20053;-63
2023/04/14 04:54:18;;;;;;;14.38;5.50;;;;;;;3.31;92.67;100819.75;5038796;28;20036;-64
2023/04/14 04:56:43;;;;;;;15.13;5.55;;;;;;;3.31;92.57;100825.00;5039318;28;20071;-64
2023/04/14 04:59:09;;;;;;;16.25;5.70;;;;;;;3.31;92.40;100825.00;5038302;28;20045;-63
2023/04/14 05:01:35;;;;;;;12.30;5.40;;;;;;;3.35;92.61;100820.34;5039362;28;20158;-63
2023/04/14 05:04:00;;;;;;;17.30;6.03;;;;;;;3.33;91.83;100817.88;5038525;28;20346;-64
2023/04/14 05:06:27;;;;;;;11.98;5.43;;;;;;;3.38;91.84;100811.41;5038867;28;20043;-63
2023/04/14 05:08:54;;;;;;;14.77;5.55;;;;;;;3.35;92.04;100820.34;5035878;28;20682;-63
2023/04/14 05:11:19;;;;;;;14.65;5.38;;;;;;;3.38;91.71;100814.88;5037901;28;20124;-64
2023/04/14 05:13:45;;;;;;;14.77;5.50;;;;;;;3.36;91.65;100822.88;5038241;28;20041;-63
2023/04/14 05:16:14;;;;;;;17.15;5.30;;;;;;;3.35;92.03;100810.72;5036998;28;20029;-64
2023/04/14 05:18:40;;;;;;;15.13;5.47;;;;;;;3.35;92.21;100813.34;5039206;28;20029;-63
2023/04/14 05:21:13;;;;;;;13.98;5.57;;;;;;;3.35;92.29;100821.19;5039176;28;20028;-64
2023/04/14 05:23:40;;;;;;;;;;;;;;;3.47;90.83;100811.56;5031833;28;20057;-63
2023/04/14 05:26:06;;;;;;;15.35;5.90;;;;;;;3.41;91.54;100811.22;5039212;28;20536;-64
2023/04/14 05:28:32;;;;;;;15.40;5.43;;;;;;;3.46;92.63;100816.94;5035323;28;20029;-63
2023/04/14 05:30:57;;;;;;;16.15;5.82;;;;;;;3.45;93.02;100810.03;5038410;28;20047;-63
2023/04/14 05:33:23;;;;;;;15.80;6.00;;;;;;;3.53;92.88;100815.53;5041297;28;20123;-63
2023/04/14 05:35:52;;;;;;;13.98;6.28;;;;;;;3.55;93.08;100821.47;5041950;28;20061;-63
2023/04/14 05:38:18;;;;;;;18.70;6.40;;;;;;;3.62;93.07;100817.44;5035066;28;20040;-64
2023/04/14 05:40:44;;;;;;;16.30;6.43;;;;;;;3.71;92.92;100820.31;5040525;28;20029;-63
2023/04/14 05:43:10;;;;;;;17.25;6.35;;;;;;;3.79;92.93;100817.13;5043115;28;20432;-64
2023/04/14 05:45:35;;;;;;;17.52;6.10;;;;;;;3.90;93.18;100817.94;5042708;28;20116;-63
2023/04/14 05:48:01;;;;;;;18.55;6.68;;;;;;;3.96;92.54;100813.19;5041278;28;20167;-63
2023/04/14 05:50:26;;;;;;;13.45;5.80;;;;;;;4.03;92.58;100814.38;5041712;28;20059;-63
2023/04/14 05:52:52;;;;;;;15.20;5.75;;;;;;;4.10;92.44;100809.50;5039128;28;20039;-63
2023/04/14 05:55:18;;;;;;;15.82;5.95;;;;;;;4.14;92.86;100806.50;5039798;28;20033;-63
2023/04/14 05:57:43;;;;;;;20.33;6.22;;;;;;;4.21;92.87;100806.88;5035136;28;20124;-63
2023/04/14 06:00:09;;;;;;;17.85;5.93;;;;;;;4.27;92.76;100810.78;5040499;28;20028;-63
2023/04/14 06:02:35;;;;;;;15.85;5.70;;;;;;;4.38;92.14;100816.03;5037899;28;20037;-63
2023/04/14 06:05:00;;;;;;;22.98;6.30;;;;;;;4.47;92.21;100813.63;5038058;28;20044;-63
2023/04/14 06:07:26;;;;;;;15.98;5.55;;;;;;;4.56;91.69;100815.53;5043829;28;20357;-63
2023/04/14 06:09:52;;;;;;;15.07;5.60;;;;;;;4.66;91.99;100811.22;5041630;28;20033;-62
2023/04/14 06:12:17;;;;;;;15.27;5.30;;;;;;;4.71;91.06;100818.72;5038218;28;20032;-63
2023/04/14 06:14:42;;;;;;;14.68;5.05;;;;;;;4.79;90.25;100820.72;5039523;28;20033;-63
2023/04/14 06:17:08;;;;;;;14.27;5.50;;;;;;;4.85;90.42;100820.25;5043478;28;20029;-63
2023/04/14 06:19:33;;;;;;;15.35;5.20;;;;;;;4.89;89.98;100821.63;5037429;28;20436;-66
2023/04/14 06:21:58;;;;;;;12.77;5.10;;;;;;;4.94;90.89;100819.47;5040309;28;20029;-63
2023/04/14 06:24:24;;;;;;;10.95;4.90;;;;;;;5.02;90.12;100823.28;5037611;28;20048;-63
2023/04/14 06:26:49;;;;;;;15.40;5.20;;;;;;;5.08;90.39;100820.16;5033999;28;20037;-63
2023/04/14 06:29:15;;;;;;;13.13;5.30;;;;;;;5.15;89.85;100816.06;5043270;28;20774;-63
2023/04/14 06:31:40;;;;;;;15.20;5.22;;;;;;;5.23;89.24;100807.56;5040500;28;20120;-68
2023/04/14 06:34:05;;;;;;;12.52;5.22;;;;;;;5.27;89.34;100802.88;5039122;28;20041;-62
2023/04/14 06:36:31;;;;;;;13.52;4.85;;;;;;;5.36;89.85;100802.09;5042430;28;20064;-62
2023/04/14 06:38:57;;;;;;;14.32;5.15;;;;;;;5.42;88.47;100801.56;5039682;28;20594;-63
2023/04/14 06:41:22;;;;;;;13.35;4.63;;;;;;;5.46;88.02;100797.72;5037618;28;20032;-63
2023/04/14 06:43:47;;;;;;;16.15;5.25;;;;;;;5.53;87.40;100803.31;5039932;28;20136;-63
2023/04/14 06:46:13;;;;;;;12.52;5.07;;;;;;;5.59;87.43;100797.53;5034126;28;20134;-63
2023/04/14 06:48:38;;;;;;;14.48;5.45;;;;;;;5.67;87.33;100802.13;5044220;28;20522;-62
2023/04/14 06:51:03;;;;;;;14.65;5.05;;;;;;;5.74;86.23;100800.66;5042378;28;20448;-63
2023/04/14 06:53:29;;;;;;;14.32;5.03;;;;;;;5.81;86.68;100794.88;5041413;28;20041;-62
2023/04/14 06:56:00;;;;;;;13.85;4.78;;;;;;;5.89;86.21;100797.69;5034515;28;20032;-63
2023/04/14 06:58:26;;;;;;;15.15;4.97;;;;;;;5.96;85.66;100798.81;5031942;28;20067;-62
2023/04/14 07:00:56;;;;;;;14.50;4.90;;;;;;;6.03;86.39;100792.06;5041897;28;20029;-63
2023/04/14 07:03:22;;;;;;;11.73;4.85;;;;;;;6.13;85.98;100789.47;5042273;28;20058;-63
2023/04/14 07:05:47;;;;;;;12.18;5.10;;;;;;;6.20;84.71;100789.78;5044572;28;20584;-63
2023/04/14 07:08:12;;;;;;;10.13;4.60;;;;;;;6.27;84.49;100788.28;5040288;28;20469;-63
2023/04/14 07:10:38;;;;;;;15.77;5.45;;;;;;;6.36;83.88;100788.44;5033625;28;20087;-62
2023/04/14 07:13:03;;;;;;;15.60;4.85;;;;;;;6.44;83.87;100791.22;5040543;28;20036;-62
2023/04/14 07:15:28;;;;;;;11.38;4.68;;;;;;;6.50;83.51;100780.16;5043062;28;20040;-62
2023/04/14 07:17:54;;;;;;;8.65;4.18;;;;;;;6.54;82.96;100781.56;5041998;28;20041;-62
2023/04/14 07:20:19;;;;;;;10.93;4.10;;;;;;;6.67;81.78;100780.47;5034990;28;20049;-63
2023/04/14 07:22:45;;;;;;;12.25;4.10;;;;;;;6.75;81.95;100775.31;5043745;28;20041;-63
2023/04/14 07:25:10;;;;;;;11.30;4.03;;;;;;;6.87;81.20;100781.31;5042365;28;20079;-63
2023/04/14 07:27:36;;;;;;;9.70;3.60;;;;;;;6.98;80.76;100775.06;5044062;28;20381;-64
2023/04/14 07:30:01;;;;;;;11.35;3.95;;;;;;;7.10;79.49;100779.22;5040748;28;20028;-63
2023/04/14 07:32:26;;;;;;;13.82;4.38;;;;;;;7.16;78.90;100771.72;5044148;28;20036;-64
2023/04/14 07:34:52;;;;;;;10.77;4.25;;;;;;;7.23;78.73;100775.44;5047747;28;20064;-64
2023/04/14 07:37:17;;;;;;;9.43;4.10;;;;;;;7.31;76.95;100767.66;5034583;28;20108;-64
2023/04/14 07:39:43;;;;;;;9.68;4.00;;;;;;;7.44;76.80;100770.00;5046763;28;20033;-64
2023/04/14 07:42:08;;;;;;;9.85;4.05;;;;;;;7.52;76.64;100764.00;5046007;28;20049;-64
2023/04/14 07:44:33;;;;;;;11.82;3.83;;;;;;;7.55;76.02;100758.44;5045744;28;20397;-64
2023/04/14 07:46:58;;;;;;;9.10;3.95;;;;;;;7.67;76.76;100762.59;5047330;28;20053;-63
2023/04/14 07:49:24;;;;;;;8.68;3.70;;;;;;;7.76;77.12;100760.03;5045910;28;20037;-64
2023/04/14 07:51:49;;;;;;;9.63;3.30;;;;;;;7.81;74.93;100765.72;5044700;28;20029;-64
2023/04/14 07:54:15;;;;;;;10.32;3.70;;;;;;;7.87;74.36;100759.84;5038266;28;20090;-64
2023/04/14 07:56:41;;;;;;;9.98;3.50;;;;;;;7.95;73.08;100759.13;5047221;28;20523;-63
2023/04/14 07:59:06;;;;;;;11.35;3.45;;;;;;;8.05;72.47;100759.09;5045711;28;20134;-63
2023/04/14 08:01:31;;;;;;;8.60;3.33;;;;;;;8.13;71.49;100761.81;5044543;28;20033;-64
2023/04/14 08:03:56;;;;;;;12.43;3.97;;;;;;;8.21;71.13;100764.53;5045595;28;20468;-64
2023/04/14 08:06:22;;;;;;;7.32;3.35;;;;;;;8.29;72.70;100761.16;5044428;28;20067;-64
2023/04/14 08:08:47;;;;;;;8.50;3.47;;;;;;;8.38;71.77;100769.19;5046083;28;20033;-64
2023/04/14 08:11:12;;;;;;;7.97;3.35;;;;;;;8.50;70.65;100767.16;5043023;28;20086;-64
2023/04/14 08:13:38;;;;;;;7.60;3.22;;;;;;;8.57;69.29;100762.97;5046636;28;20045;-64
2023/04/14 08:16:03;;;;;;;6.90;3.00;;;;;;;8.63;69.18;100761.53;5045740;28;20036;-64
2023/04/14 08:18:28;;;;;;;8.65;2.97;;;;;;;8.73;68.16;100757.84;5043908;28;20048;-64
2023/04/14 08:20:55;;;;;;;8.07;2.95;;;;;;;8.77;68.55;100762.84;5040906;28;20432;-64
2023/04/14 08:23:21;;;;;;;7.85;3.03;;;;;;;8.87;68.01;100758.28;5034671;28;20107;-65
2023/04/14 08:25:46;;;;;;;6.45;2.90;;;;;;;8.92;67.20;100766.59;5044863;28;20115;-62
2023/04/14 08:28:12;;;;;;;8.93;3.53;;;;;;;8.98;66.89;100765.97;5042766;28;20115;-64
2023/04/14 08:30:37;;;;;;;8.13;3.22;;;;;;;9.06;67.41;100761.72;5043907;28;20116;-64
2023/04/14 08:33:03;;;;;;;9.07;2.92;;;;;;;9.17;65.97;100763.31;5045851;28;20041;-65
2023/04/14 08:35:28;;;;;;;7.90;2.92;;;;;;;9.22;66.55;100759.22;5044507;28;20472;-65
2023/04/14 08:37:54;;;;;;;6.65;2.88;;;;;;;9.25;64.85;100758.91;5045009;28;20044;-63
2023/04/14 08:40:21;;;;;;;7.22;2.53;;;;;;;9.32;64.24;100760.94;5046416;28;20033;-64
2023/04/14 08:42:46;;;;;;;7.50;2.72;;;;;;;9.37;63.68;100763.97;5043966;28;20029;-63
2023/04/14 08:45:12;;;;;;;6.72;2.60;;;;;;;9.48;62.71;100755.72;5042970;28;20040;-64
2023/04/14 08:47:39;;;;;;;9.02;2.60;;;;;;;9.53;63.44;100764.03;5044282;28;20071;-65
2023/04/14 08:50:11;;;;;;;6.72;2.60;;;;;;;9.64;62.14;100759.47;5045063;28;20461;-64
2023/04/14 08:52:39;;;;;;;7.18;2.72;;;;;;;9.69;62.30;100765.13;5038506;28;20099;-65
2023/04/14 08:55:06;;;;;;;7.10;2.90;;;;;;;9.70;62.80;100753.56;5042842;28;20110;-65
2023/04/14 08:57:32;;;;;;;9.30;2.80;;;;;;;9.82;62.44;100756.78;5039528;28;20036;-65
2023/04/14 08:59:58;;;;;;;7.95;2.30;;;;;;;9.94;62.27;100765.25;5045612;28;20033;-65
2023/04/14 09:02:25;;;;;;;5.95;2.30;;;;;;;10.01;61.20;100766.25;5043723;28;20033;-65
2023/04/14 09:04:51;;;;;;;5.40;2.20;;;;;;;10.04;60.75;100765.97;5045206;28;20476;-65
2023/04/14 09:07:18;;;;;;;6.13;2.38;;;;;;;10.07;60.76;100762.97;5044097;28;20024;-65
2023/04/14 09:09:44;;;;;;;4.85;2.17;;;;;;;10.10;61.38;100761.81;5044833;28;20051;-65
2023/04/14 09:12:11;;;;;;;9.73;2.70;;;;;;;10.13;60.73;100752.72;5041577;28;20472;-65
2023/04/14 09:14:38;;;;;;;6.60;2.28;;;;;;;10.24;60.85;100760.38;5044478;28;20037;-65
2023/04/14 09:17:04;;;;;;;7.10;2.42;;;;;;;10.31;60.39;100756.09;5037326;28;20026;-65
2023/04/14 09:19:30;;;;;;;5.68;2.58;;;;;;;10.34;60.38;100755.78;5041087;28;20041;-65
2023/04/14 09:21:55;;;;;;;5.57;2.50;;;;;;;10.35;60.86;100746.84;5043684;28;20554;-65
2023/04/14 09:24:28;;;;;;;5.60;2.40;;;;;;;10.40;60.66;100749.00;5037333;28;20029;-64
2023/04/14 09:26:54;;;;;;;9.00;2.60;;;;;;;10.46;60.55;100747.56;5042854;28;20079;-65
2023/04/14 09:29:19;;;;;;;6.05;2.47;;;;;;;10.53;60.13;100732.66;5043023;28;20033;-65
2023/04/14 09:31:45;;;;;;;5.82;2.45;;;;;;;10.59;59.45;100732.00;5039249;28;20032;-65
2023/04/14 09:34:19;;;;;;;7.82;2.40;;;;;;;10.69;60.48;100741.59;5038869;28;20029;-65
2023/04/14 09:37:06;;;;;;;8.25;2.80;;;;;;;10.82;60.77;100736.66;5043802;28;20098;-65
2023/04/14 09:39:33;;;;;;;6.45;2.30;;;;;;;10.84;59.58;100739.13;5034564;28;20029;-65
2023/04/14 09:42:00;;;;;;;7.30;2.45;;;;;;;10.89;57.88;100735.00;5037932;28;20025;-65
2023/04/14 09:44:26;;;;;;;6.82;2.70;;;;;;;10.84;58.68;100729.34;5037107;28;20041;-64
2023/04/14 09:46:59;;;;;;;6.65;2.53;;;;;;;10.71;58.27;100729.84;5038493;28;20897;-64
2023/04/14 09:49:25;;;;;;;8.10;2.58;;;;;;;10.71;58.14;100731.69;5035715;28;20489;-65
2023/04/14 09:51:59;;;;;;;7.90;2.60;;;;;;;10.75;57.36;100725.88;5037992;28;20037;-65
2023/04/14 09:54:25;;;;;;;9.95;2.30;;;;;;;10.68;57.08;100724.88;5035457;28;20120;-65
2023/04/14 09:56:52;;;;;;;6.38;2.40;;;;;;;10.63;56.47;100727.19;5041060;28;20029;-64
2023/04/14 09:59:32;;;;;;;7.13;2.60;;;;;;;10.68;57.17;100718.72;5043966;28;20400;-65
2023/04/14 10:02:02;;;;;;;6.93;2.30;;;;;;;10.69;57.21;100715.06;5038992;28;20033;-65
2023/04/14 10:04:27;;;;;;;6.47;2.33;;;;;;;10.71;57.91;100718.41;5037663;28;20913;-64
2023/04/14 10:06:56;;;;;;;8.15;2.50;;;;;;;10.87;58.21;100714.94;5042225;28;20036;-65
2023/04/14 10:09:23;;;;;;;7.38;2.80;;;;;;;11.05;56.99;100712.06;5029143;28;20382;-64
2023/04/14 10:12:11;;;;;;;7.63;2.40;;;;;;;11.17;57.27;100707.28;5034550;28;20117;-63
2023/04/14 10:14:38;;;;;;;6.90;2.70;;;;;;;11.29;55.69;100699.75;5027656;28;20135;-64
2023/04/14 10:17:03;;;;;;;6.75;2.60;;;;;;;11.41;56.16;100700.25;5042668;28;20040;-65
2023/04/14 10:19:29;;;;;;;8.27;2.40;;;;;;;11.38;56.04;100697.91;5043953;28;20678;-64
2023/04/14 10:21:56;;;;;;;8.60;2.75;;;;;;;11.29;56.19;100702.41;5041557;28;20060;-65
2023/04/14 10:24:22;;;;;;;9.40;2.40;;;;;;;11.22;55.68;100693.47;5041925;28;20354;-65
2023/04/14 10:26:48;;;;;;;6.47;2.42;;;;;;;11.22;57.56;100693.47;5032268;28;20123;-65
2023/04/14 10:29:15;;;;;;;7.22;2.63;;;;;;;11.34;56.38;100692.13;5033158;28;20607;-65
2023/04/14 10:31:57;;;;;;;4.65;2.67;;;;;;;11.34;55.34;100686.00;5036254;28;20477;-65
2023/04/14 10:34:24;;;;;;;7.65;2.70;;;;;;;11.38;53.80;100685.50;5032345;28;20520;-63
2023/04/14 10:36:50;;;;;;;5.55;2.60;;;;;;;11.31;53.90;100681.88;5034763;28;20025;-64
2023/04/14 10:39:23;;;;;;;8.98;2.50;;;;;;;11.37;56.57;100681.19;5038814;28;20492;-64
2023/04/14 10:41:50;;;;;;;5.88;2.58;;;;;;;11.53;54.90;100674.13;5033323;28;20024;-66
2023/04/14 10:44:21;;;;;;;7.55;2.63;;;;;;;11.46;54.58;100678.50;5036559;28;20033;-66
2023/04/14 10:46:48;;;;;;;9.98;2.85;;;;;;;11.34;53.57;100665.56;5039934;28;20132;-65
2023/04/14 10:49:13;;;;;;;4.40;2.40;;;;;;;11.49;55.23;100668.34;5035600;28;20945;-65
2023/04/14 10:51:39;;;;;;;8.10;2.50;;;;;;;11.50;54.68;100670.00;5032204;28;20030;-65
2023/04/14 10:54:15;;;;;;;5.50;2.50;;;;;;;11.46;54.06;100667.88;5037641;28;20051;-67
2023/04/14 10:56:41;;;;;;;6.57;2.70;;;;;;;11.41;54.34;100666.53;5038164;28;20494;-66
2023/04/14 10:59:08;;;;;;;4.82;2.40;;;;;;;11.35;53.72;100664.56;5038975;28;20033;-65
2023/04/14 11:01:35;;;;;;;6.93;2.75;;;;;;;11.37;53.88;100665.25;5033783;28;20051;-66
2023/04/14 11:04:18;;;;;;;5.45;2.30;;;;;;;11.57;54.56;100657.72;5036529;28;20556;-67
2023/04/14 11:06:51;;;;;;;10.40;2.60;;;;;;;11.63;53.19;100664.16;5039951;28;20025;-66
2023/04/14 11:09:29;;;;;;;8.75;2.40;;;;;;;11.79;54.07;100659.78;5041905;28;20468;-67
2023/04/14 11:11:56;;;;;;;6.70;2.60;;;;;;;11.88;53.52;100656.06;5039277;28;20033;-67
2023/04/14 11:14:26;;;;;;;10.65;2.78;;;;;;;12.02;53.76;100656.31;5038047;28;20025;-67
2023/04/14 11:17:00;;;;;;;8.77;2.45;;;;;;;12.21;53.57;100650.56;5036045;28;20083;-67
2023/04/14 11:19:27;;;;;;;7.47;2.17;;;;;;;12.21;51.95;100645.25;5039781;28;20021;-67
2023/04/14 11:21:52;;;;;;;5.25;2.30;;;;;;;12.13;52.45;100645.31;5040118;28;20374;-67
2023/04/14 11:24:20;;;;;;;5.88;2.28;;;;;;;12.10;50.60;100643.00;5041513;28;20531;-66
2023/04/14 11:26:47;;;;;;;5.90;2.30;;;;;;;12.21;50.72;100660.38;5044377;28;20033;-63
2023/04/14 11:29:12;;;;;;;4.75;2.25;;;;;;;12.18;50.24;100645.59;5045885;28;20032;-65